createdAt,value
2022-08-22T00:00:53.330Z,2.13
2022-08-22T00:02:44.407Z,1.60
2022-08-22T00:03:02.036Z,1.70
2022-08-22T00:06:12.250Z,1.67
2022-08-22T00:11:26.008Z,1.93
2022-08-22T00:16:37.825Z,1.90
2022-08-22T00:21:57.732Z,1.95
2022-08-22T00:27:07.465Z,2.03
2022-08-22T00:32:18.596Z,2.13
2022-08-22T00:37:34.284Z,2.15
2022-08-22T00:43:04.807Z,2.17
2022-08-22T00:48:35.291Z,2.08
2022-08-22T00:53:55.217Z,2.33
2022-08-22T00:59:23.508Z,2.23
2022-08-22T01:04:42.898Z,2.40
2022-08-22T01:10:21.270Z,2.03
2022-08-22T01:15:29.701Z,1.90
2022-08-22T01:21:06.937Z,2.23
2022-08-22T01:26:54.596Z,1.83
2022-08-22T01:32:43.752Z,2.05
2022-08-22T01:38:38.179Z,2.20
2022-08-22T01:44:01.378Z,2.13
2022-08-22T01:49:14.778Z,1.90
2022-08-22T01:54:36.738Z,2.13
2022-08-22T01:59:53.168Z,2.20
2022-08-22T02:05:08.070Z,2.15
2022-08-22T02:10:51.249Z,2.20
2022-08-22T02:16:09.726Z,2.17
2022-08-22T02:21:23.352Z,2.03
2022-08-22T02:26:44.377Z,1.80
2022-08-22T02:31:58.819Z,2.07
2022-08-22T02:37:11.487Z,1.70
2022-08-22T02:42:26.921Z,2.20
2022-08-22T02:47:38.282Z,2.10
2022-08-22T02:52:58.918Z,2.40
2022-08-22T02:58:14.601Z,2.22
2022-08-22T03:03:26.242Z,2.28
2022-08-22T03:08:35.579Z,2.30
2022-08-22T03:13:57.090Z,2.28
2022-08-22T03:19:13.312Z,2.47
2022-08-22T03:24:30.605Z,2.40
2022-08-22T03:29:41.568Z,2.42
2022-08-22T03:35:02.022Z,2.28
2022-08-22T03:40:31.715Z,2.67
2022-08-22T03:46:19.615Z,2.30
2022-08-22T03:51:48.186Z,2.28
2022-08-22T03:57:15.148Z,2.10
2022-08-22T04:03:04.125Z,2.00
2022-08-22T04:08:43.875Z,2.20
2022-08-22T04:14:24.808Z,1.85
2022-08-22T04:19:57.409Z,2.20
2022-08-22T04:25:08.605Z,1.85
2022-08-22T04:30:27.635Z,2.45
2022-08-22T04:35:36.966Z,2.43
2022-08-22T04:40:50.555Z,2.27
2022-08-22T04:46:01.678Z,2.22
2022-08-22T04:51:11.472Z,2.10
2022-08-22T04:56:26.896Z,2.37
2022-08-22T05:01:42.733Z,2.10
2022-08-22T05:06:53.940Z,2.50
2022-08-22T05:12:09.125Z,2.50
2022-08-22T05:17:19.687Z,2.30
2022-08-22T05:22:41.075Z,2.20
2022-08-22T05:27:56.968Z,2.40
2022-08-22T05:33:16.619Z,2.60
2022-08-22T05:38:30.921Z,2.00
2022-08-22T05:43:41.384Z,2.70
2022-08-22T05:48:55.111Z,2.70
2022-08-22T05:54:12.422Z,3.33
2022-08-22T05:59:29.088Z,2.85
2022-08-22T06:04:40.502Z,2.47
2022-08-22T06:10:19.486Z,3.20
2022-08-22T06:15:33.138Z,3.58
2022-08-22T06:20:46.070Z,3.27
2022-08-22T06:25:52.968Z,3.80
2022-08-22T06:31:02.510Z,3.45
2022-08-22T06:36:26.030Z,2.92
2022-08-22T06:41:36.191Z,2.87
2022-08-22T06:46:48.697Z,3.40
2022-08-22T06:51:55.138Z,3.17
2022-08-22T06:57:01.653Z,2.50
2022-08-22T07:02:18.944Z,2.85
2022-08-22T07:07:29.081Z,2.90
2022-08-22T07:12:39.455Z,2.70
2022-08-22T07:17:56.471Z,2.90
2022-08-22T07:23:05.654Z,2.90
2022-08-22T07:28:36.619Z,3.10
2022-08-22T07:33:50.211Z,2.80
2022-08-22T07:39:12.204Z,3.35
2022-08-22T07:44:21.826Z,2.60
2022-08-22T07:49:35.209Z,2.70
2022-08-22T07:54:48.180Z,2.63
2022-08-22T07:59:56.530Z,2.28
2022-08-22T08:05:05.110Z,2.70
2022-08-22T08:10:16.638Z,2.20
2022-08-22T08:15:25.079Z,2.30
2022-08-22T08:20:37.896Z,2.20
2022-08-22T08:25:55.855Z,2.47
2022-08-22T08:31:10.720Z,2.22
2022-08-22T08:36:29.846Z,2.42
2022-08-22T08:41:59.958Z,2.50
2022-08-22T08:47:27.740Z,2.20
2022-08-22T08:53:01.397Z,2.33
2022-08-22T08:58:23.151Z,2.03
2022-08-22T09:03:51.423Z,2.07
2022-08-22T09:09:21.485Z,2.03
2022-08-22T09:14:52.268Z,2.00
2022-08-22T09:20:20.375Z,2.23
2022-08-22T09:25:38.694Z,1.60
2022-08-22T09:31:16.787Z,1.70
2022-08-22T09:36:39.907Z,1.77
2022-08-22T09:41:59.979Z,1.50
2022-08-22T09:47:24.587Z,1.63
2022-08-22T09:58:46.584Z,1.73
2022-08-22T10:04:22.085Z,1.60
2022-08-22T10:09:31.509Z,1.67
2022-08-22T10:15:02.372Z,1.67
2022-08-22T10:20:17.860Z,1.80
2022-08-22T10:25:34.811Z,1.70
2022-08-22T10:30:50.581Z,1.37
2022-08-22T10:36:05.094Z,2.05
2022-08-22T10:41:22.590Z,2.00
2022-08-22T10:46:39.032Z,1.90
2022-08-22T10:51:54.612Z,1.77
2022-08-22T10:57:13.954Z,1.60
2022-08-22T11:02:48.879Z,1.40
2022-08-22T11:08:19.745Z,1.77
2022-08-22T11:13:32.145Z,2.28
2022-08-22T11:19:15.619Z,1.77
2022-08-22T11:25:02.350Z,1.97
2022-08-22T11:30:18.340Z,1.73
2022-08-22T11:35:33.563Z,1.50
2022-08-22T11:40:48.522Z,1.80
2022-08-22T11:45:59.406Z,1.50
2022-08-22T11:51:19.074Z,1.67
2022-08-22T11:56:37.731Z,2.05
2022-08-22T12:01:53.618Z,2.07
2022-08-22T12:07:11.232Z,1.60
2022-08-22T12:12:39.439Z,1.70
2022-08-22T12:18:21.979Z,1.77
2022-08-22T12:23:50.239Z,1.83
2022-08-22T12:29:27.481Z,2.00
2022-08-22T12:34:51.087Z,2.00
2022-08-22T12:40:16.815Z,2.00
2022-08-22T12:45:44.962Z,2.10
2022-08-22T12:50:55.751Z,2.10
2022-08-22T12:56:13.103Z,2.00
2022-08-22T13:01:20.031Z,1.90
2022-08-22T13:06:51.949Z,2.47
2022-08-22T13:12:05.564Z,1.87
2022-08-22T13:17:24.263Z,2.28
2022-08-22T13:22:33.582Z,2.13
2022-08-22T13:27:50.658Z,2.00
2022-08-22T13:32:59.936Z,2.30
2022-08-22T13:38:12.245Z,2.05
2022-08-22T13:43:26.026Z,2.40
2022-08-22T13:48:50.204Z,2.30
2022-08-22T13:54:11.161Z,2.55
2022-08-22T13:59:50.406Z,2.42
2022-08-22T14:05:01.971Z,2.43
2022-08-22T14:10:15.541Z,2.25
2022-08-22T14:15:32.367Z,2.72
2022-08-22T14:20:51.556Z,2.67
2022-08-22T14:25:58.563Z,2.60
2022-08-22T14:31:13.261Z,2.58
2022-08-22T14:36:24.523Z,2.42
2022-08-22T14:41:52.683Z,2.10
2022-08-22T14:47:32.580Z,2.38
2022-08-22T14:52:40.665Z,2.50
2022-08-22T14:57:52.216Z,2.40
2022-08-22T15:03:11.216Z,2.08
2022-08-22T15:08:27.532Z,2.53
2022-08-22T15:13:33.543Z,2.50
2022-08-22T15:18:52.065Z,2.13
2022-08-22T15:24:04.807Z,2.60
2022-08-22T15:29:20.793Z,2.20
2022-08-22T15:34:38.597Z,2.63
2022-08-22T15:40:11.906Z,2.30
2022-08-22T15:45:25.299Z,2.20
2022-08-22T15:50:39.557Z,2.20
2022-08-22T15:56:20.415Z,2.50
2022-08-22T16:01:28.859Z,2.60
2022-08-22T16:06:48.185Z,2.50
2022-08-22T16:11:57.869Z,3.03
2022-08-22T16:17:09.555Z,2.47
2022-08-22T16:22:25.478Z,2.10
2022-08-22T16:27:32.288Z,2.50
2022-08-22T16:32:39.243Z,2.50
2022-08-22T16:37:57.852Z,2.35
2022-08-22T16:43:18.287Z,2.70
2022-08-22T16:48:34.721Z,2.17
2022-08-22T16:54:11.722Z,2.30
2022-08-22T16:59:47.404Z,2.23
2022-08-22T17:05:03.374Z,2.87
2022-08-22T17:10:29.617Z,2.30
2022-08-22T17:15:43.443Z,2.08
2022-08-22T17:20:53.104Z,2.20
2022-08-22T17:26:20.675Z,2.10
2022-08-22T17:31:33.553Z,2.35
2022-08-22T17:37:00.978Z,2.30
2022-08-22T17:42:29.125Z,2.00
2022-08-22T17:47:44.907Z,2.28
2022-08-22T17:52:56.851Z,2.47
2022-08-22T17:58:09.352Z,2.53
2022-08-22T18:03:24.682Z,2.25
2022-08-22T18:08:38.082Z,2.38
2022-08-22T18:13:56.663Z,2.83
2022-08-22T18:19:07.707Z,3.92
2022-08-22T18:24:22.767Z,2.30
2022-08-22T18:29:42.034Z,2.27
2022-08-22T18:34:53.635Z,2.42
2022-08-22T18:40:07.195Z,2.80
2022-08-22T18:45:44.277Z,2.40
2022-08-22T18:50:50.733Z,2.67
2022-08-22T18:56:04.475Z,2.38
2022-08-22T19:01:42.290Z,2.50
2022-08-22T19:07:07.539Z,2.57
2022-08-22T19:12:34.684Z,2.15
2022-08-22T19:17:59.289Z,2.13
2022-08-22T19:23:46.925Z,2.30
2022-08-22T19:28:54.157Z,2.80
2022-08-22T19:34:22.355Z,2.58
2022-08-22T19:39:54.413Z,2.40
2022-08-22T19:45:10.539Z,2.93
2022-08-22T19:50:33.057Z,5.50
2022-08-22T19:55:55.300Z,3.67
2022-08-22T20:01:04.028Z,2.80
2022-08-22T20:06:42.506Z,3.00
2022-08-22T20:11:50.168Z,2.30
2022-08-22T20:17:10.721Z,2.57
2022-08-22T20:22:23.088Z,2.60
2022-08-22T20:27:34.341Z,2.63
2022-08-22T20:32:45.796Z,2.40
2022-08-22T20:38:07.393Z,2.73
2022-08-22T20:43:25.381Z,2.70
2022-08-22T20:48:40.988Z,3.20
2022-08-22T20:53:54.543Z,2.77
2022-08-22T20:59:01.312Z,3.10
2022-08-22T21:04:07.775Z,2.88
2022-08-22T21:09:33.110Z,2.90
2022-08-22T21:14:46.182Z,2.85
2022-08-22T21:19:52.607Z,2.75
2022-08-22T21:25:03.950Z,3.00
2022-08-22T21:30:12.695Z,2.70
2022-08-22T21:35:27.020Z,2.88
2022-08-22T21:40:39.799Z,3.00
2022-08-22T21:45:47.270Z,2.97
2022-08-22T21:50:53.469Z,3.10
2022-08-22T21:56:18.479Z,2.65
2022-08-22T22:01:33.033Z,3.30
2022-08-22T22:06:38.526Z,3.15
2022-08-22T22:11:46.965Z,2.90
2022-08-22T22:16:52.516Z,2.97
2022-08-22T22:21:57.846Z,3.10
2022-08-22T22:27:07.250Z,3.20
2022-08-22T22:32:15.346Z,3.20
2022-08-22T22:37:21.784Z,3.20
2022-08-22T22:42:30.470Z,3.00
2022-08-22T22:47:38.704Z,3.00
2022-08-22T22:52:45.651Z,3.40
2022-08-22T22:57:59.888Z,2.80
2022-08-22T23:03:11.191Z,3.10
2022-08-22T23:08:18.535Z,2.83
2022-08-22T23:13:26.635Z,2.83
2022-08-22T23:18:32.982Z,2.78
2022-08-22T23:23:41.799Z,2.95
2022-08-22T23:28:49.956Z,2.67
2022-08-22T23:33:55.384Z,2.97
2022-08-22T23:39:01.193Z,3.00
2022-08-22T23:44:13.519Z,2.60
2022-08-22T23:49:19.987Z,3.05
2022-08-22T23:54:27.831Z,2.92
2022-08-22T23:59:38.464Z,3.20
